Latest Weather Observations for Campania

IDT60901

Issued at 10:42 pm EST Friday 29 May 2015 (issued every 10 minutes, with the page automatically refreshed every 10 minutes)

About weather observations | Map of Hobart area stations | Latest observations for Hobart area | Other Formats
Station Details ID: 094212 Name: CAMPANIA (KINCORA) Lat: -42.69 Lon: 147.43 Height: 45.0 m
Data from the previous 72 hours. | See also: Recent months at Campania
Date/Time
EST
Tmp

°C
App
Tmp
°C
Dew
Point
°C
Rel
Hum
%
Delta-T

°C
Wind Press
QNH
hPa
Press
MSL
hPa
Rain
since
9 am
mm
Dir
 
Spd
km/h
Gust
km/h
Spd
kts
Gust
kts
29/10:30pm 9.8 4.2 3.3 64 2.8 N 22 33 12 18 - - 0.0
29/10:00pm 9.8 2.6 3.1 63 2.9 N 30 41 16 22 - - 0.0
29/09:30pm 10.2 3.3 2.8 60 3.2 N 28 35 15 19 - - 0.0
29/09:00pm 10.0 4.0 3.1 62 3.0 N 24 32 13 17 - - 0.0
29/08:30pm 10.0 4.9 3.1 62 3.0 N 19 28 10 15 - - 0.0
29/08:00pm 9.6 4.9 2.9 63 2.9 N 17 26 9 14 - - 0.0
29/07:30pm 9.8 4.7 3.1 63 2.9 N 19 24 10 13 - - 0.0
29/07:00pm 9.9 5.6 3.0 62 3.0 NNW 15 24 8 13 - - 0.0
29/06:30pm 9.8 4.7 3.3 64 2.8 N 19 24 10 13 - - 0.0
29/06:00pm 9.8 4.8 3.5 65 2.7 N 19 22 10 12 - - 0.0
29/05:30pm 10.4 5.2 3.7 63 2.9 N 20 28 11 15 - - 0.0
29/05:00pm 10.6 6.0 3.6 62 3.1 N 17 26 9 14 - - 0.0
29/04:30pm 10.9 6.7 3.7 61 3.2 N 15 24 8 13 - - 0.0
29/04:00pm 11.1 6.0 3.2 58 3.5 NNW 19 28 10 15 - - 0.0
29/03:30pm 11.4 5.7 2.9 56 3.7 NNW 22 32 12 17 - - 0.0
29/03:00pm 12.2 5.0 3.2 54 4.0 NNW 30 43 16 23 - - 0.0
29/02:30pm 12.3 6.7 3.5 55 3.9 NW 22 37 12 20 - - 0.0
29/02:00pm 12.6 6.5 3.0 52 4.2 WNW 24 35 13 19 - - 0.0
29/01:30pm 12.4 6.4 3.6 55 3.9 NW 24 39 13 21 - - 0.0
29/01:00pm 12.1 5.6 2.8 53 4.1 WNW 26 37 14 20 - - 0.0
29/12:30pm 12.2 7.0 3.4 55 3.9 NNW 20 30 11 16 - - 0.0
29/12:00pm 12.0 6.9 3.0 54 4.0 NNW 19 30 10 16 - - 0.0
29/11:30am 11.2 6.1 2.8 56 3.6 NW 19 33 10 18 - - 0.0
29/11:00am 10.3 4.5 2.2 57 3.4 NW 22 35 12 19 - - 0.0
29/10:30am 10.0 4.2 2.1 58 3.3 NW 22 30 12 16 - - 0.0
29/10:00am 9.5 3.2 1.7 58 3.3 NW 24 39 13 21 - - 0.0
29/09:30am 8.8 2.6 1.9 62 2.9 NW 24 37 13 20 - - 0.0
29/09:00am 8.3 3.0 1.7 63 2.7 NW 19 28 10 15 - - 3.4
29/08:30am 7.5 3.0 2.0 68 2.3 NNW 15 19 8 10 - - 3.4
29/08:00am 7.1 1.7 1.4 67 2.3 NW 19 30 10 16 - - 3.4
29/07:30am 4.5 0.5 0.8 77 1.4 NNW 11 15 6 8 - - 3.4
29/07:00am 5.4 1.5 1.0 73 1.7 N 11 17 6 9 - - 3.4
29/06:30am 5.7 0.3 1.4 74 1.7 NW 19 32 10 17 - - 3.4
29/06:00am 4.9 1.5 1.7 80 1.3 NNW 9 15 5 8 - - 3.4
29/05:30am 5.1 -0.1 2.5 83 1.1 N 19 28 10 15 - - 3.4
29/05:00am 5.1 -0.1 2.6 84 1.0 NW 19 32 10 17 - - 3.4
29/04:38am 5.7 -1.1 2.9 82 1.2 W 28 50 15 27 - - 2.8
29/04:30am 6.7 0.2 2.6 75 1.7 WSW 26 33 14 18 - - 1.8
29/04:00am 7.3 1.4 1.6 67 2.3 WNW 22 41 12 22 - - 1.8
29/03:30am 7.5 2.2 2.8 72 2.0 NW 20 46 11 25 - - 1.8
29/03:00am 6.0 2.5 3.3 83 1.1 NW 11 15 6 8 - - 1.6
29/02:30am 7.0 2.0 3.6 79 1.4 W 19 26 10 14 - - 1.6
29/02:00am 8.8 3.0 2.2 63 2.8 WNW 22 33 12 18 - - 1.2
29/01:30am 8.5 2.3 2.1 64 2.7 NW 24 35 13 19 - - 1.2
29/01:00am 9.2 3.0 2.3 62 2.9 NW 24 35 13 19 - - 1.2
29/12:30am 9.3 4.5 2.4 62 2.9 NW 17 30 9 16 - - 1.2
29/12:00am 9.2 4.4 2.5 63 2.8 NW 17 26 9 14 - - 1.2
 
Date/Time
EST
Tmp

°C
App
Tmp
°C
Dew
Point
°C
Rel
Hum
%
Delta-T

°C
Wind Press
QNH
hPa
Press
MSL
hPa
Rain
since
9 am
mm
Dir
 
Spd
km/h
Gust
km/h
Spd
kts
Gust
kts
28/11:30pm 9.6 4.8 2.7 62 2.9 NNW 17 26 9 14 - - 1.2
28/11:00pm 9.7 4.6 3.0 63 2.9 NW 19 26 10 14 - - 1.2
28/10:30pm 9.9 4.3 3.4 64 2.8 NW 22 30 12 16 - - 1.2
28/10:00pm 9.2 5.8 4.0 70 2.3 NW 11 19 6 10 - - 1.2
28/09:30pm 10.4 6.3 4.5 67 2.6 NW 15 24 8 13 - - 1.2
28/09:00pm 10.4 6.7 4.3 66 2.7 NNW 13 24 7 13 - - 1.2
28/08:30pm 9.6 7.0 4.0 68 2.5 NNW 7 13 4 7 - - 1.2
28/08:00pm 10.7 5.6 4.2 64 2.9 NNW 20 33 11 18 - - 1.2
28/07:30pm 10.9 5.6 5.2 68 2.6 NNW 22 32 12 17 - - 1.2
28/07:00pm 11.3 6.0 5.0 65 2.9 NNW 22 35 12 19 - - 1.2
28/06:30pm 11.3 7.6 6.2 71 2.4 NW 15 20 8 11 - - 1.2
28/06:00pm 11.5 6.9 6.6 72 2.3 WNW 20 32 11 17 - - 1.2
28/05:30pm 11.9 8.4 7.4 74 2.2 WNW 15 22 8 12 - - 1.2
28/05:00pm 12.3 7.1 7.4 72 2.4 WNW 24 44 13 24 - - 1.2
28/04:54pm 12.9 6.9 7.1 68 2.8 WNW 28 44 15 24 - - 1.0
28/04:30pm 14.2 10.3 7.0 62 3.5 NW 17 22 9 12 - - 0.8
28/04:00pm 13.4 11.2 7.8 69 2.8 NNW 9 17 5 9 - - 0.8
28/03:30pm 14.0 12.7 9.8 76 2.2 SSE 7 9 4 5 - - 0.8
28/03:00pm 14.6 13.1 9.2 70 2.8 NE 7 11 4 6 - - 0.8
28/02:30pm 14.6 12.8 9.6 72 2.6 NE 9 13 5 7 - - 0.8
28/02:00pm 13.6 11.2 10.0 79 1.9 NW 13 22 7 12 - - 0.8
28/01:30pm 13.0 9.2 8.9 76 2.1 WNW 19 32 10 17 - - 0.8
28/01:00pm 17.0 13.2 5.9 48 5.4 NW 15 24 8 13 - - 0.0
28/12:30pm 17.1 11.6 5.7 47 5.5 NNW 24 37 13 20 - - 0.0
28/12:00pm 17.7 12.2 5.9 46 5.8 N 24 37 13 20 - - 0.0
28/11:30am 16.6 11.9 6.1 50 5.1 NNW 20 30 11 16 - - 0.0
28/11:00am 15.4 11.1 6.9 57 4.2 N 19 26 10 14 - - 0.0
28/10:30am 15.6 10.4 7.1 57 4.2 N 24 32 13 17 - - 0.0
28/10:00am 15.4 10.2 7.4 59 4.0 N 24 33 13 18 - - 0.0
28/09:30am 14.4 8.6 7.9 65 3.2 N 28 39 15 21 - - 0.0
28/09:00am 13.9 8.5 7.9 67 3.0 N 26 33 14 18 - - 0.0
28/08:30am 13.3 8.1 7.3 67 2.9 N 24 32 13 17 - - 0.0
28/08:00am 12.0 7.4 6.7 70 2.5 N 20 24 11 13 - - 0.0
28/07:30am 12.3 7.0 6.8 69 2.6 N 24 32 13 17 - - 0.0
28/07:00am 12.9 7.6 6.7 66 3.0 N 24 35 13 19 - - 0.0
28/06:30am 10.3 7.7 6.1 75 2.0 NW 9 13 5 7 - - 0.0
28/06:00am 11.4 8.0 6.1 70 2.5 NW 13 19 7 10 - - 0.0
28/05:30am 8.8 6.8 6.1 83 1.2 NW 6 9 3 5 - - 0.0
28/05:00am 10.0 8.1 6.7 80 1.5 NNW 6 9 3 5 - - 0.0
28/04:30am 11.4 9.2 7.9 79 1.7 WNW 9 13 5 7 - - 0.0
28/04:00am 10.8 8.9 6.9 77 1.9 NW 6 9 3 5 - - 0.0
28/03:30am 12.1 8.9 7.0 71 2.5 N 13 17 7 9 - - 0.0
28/03:00am 13.1 9.4 6.5 64 3.2 N 15 19 8 10 - - 0.0
28/02:30am 13.7 9.4 6.8 63 3.3 N 19 24 10 13 - - 0.0
28/02:26am 13.5 9.2 7.1 65 3.1 N 19 26 10 14 - - 0.0
28/02:00am 8.5 6.9 6.3 86 1.0 WSW 4 7 2 4 - - 0.0
28/01:30am 9.1 6.9 6.4 83 1.3 SW 7 11 4 6 - - 0.0
28/01:00am 12.1 9.0 8.8 80 1.6 N 15 20 8 11 - - 0.0
28/12:30am 13.2 10.2 9.3 77 2.0 N 15 17 8 9 - - 0.0
28/12:00am 13.6 11.8 9.6 77 2.1 N 9 19 5 10 - - 0.0
 
Date/Time
EST
Tmp

°C
App
Tmp
°C
Dew
Point
°C
Rel
Hum
%
Delta-T

°C
Wind Press
QNH
hPa
Press
MSL
hPa
Rain
since
9 am
mm
Dir
 
Spd
km/h
Gust
km/h
Spd
kts
Gust
kts
27/11:30pm 13.9 11.7 9.3 74 2.3 NNW 11 15 6 8 - - 0.0
27/11:00pm 13.9 9.3 9.5 75 2.3 N 24 32 13 17 - - 0.0
27/10:30pm 13.7 8.7 9.4 75 2.2 N 26 35 14 19 - - 0.0
27/10:00pm 13.4 8.0 9.5 77 2.0 N 28 39 15 21 - - 0.0
27/09:30pm 13.5 8.0 9.2 75 2.2 N 28 39 15 21 - - 0.0
27/09:00pm 13.1 8.8 9.4 78 1.9 N 22 32 12 17 - - 0.0
27/08:30pm 13.2 8.8 8.9 75 2.2 N 22 30 12 16 - - 0.0
27/08:00pm 13.1 9.1 9.2 77 2.0 N 20 32 11 17 - - 0.0
27/07:30pm 12.0 7.9 8.7 80 1.6 N 20 28 11 15 - - 0.0
27/07:00pm 13.0 7.8 8.9 76 2.1 N 26 39 14 21 - - 0.0
27/06:30pm 12.8 8.3 8.7 76 2.1 N 22 35 12 19 - - 0.0
27/06:00pm 13.4 9.0 9.1 75 2.2 N 22 30 12 16 - - 0.0
27/05:30pm 13.4 9.0 9.1 75 2.2 N 22 32 12 17 - - 0.0
27/05:00pm 13.3 9.5 9.2 76 2.1 N 19 30 10 16 - - 0.0
27/04:30pm 14.2 10.2 9.0 71 2.6 N 20 28 11 15 - - 0.0
27/04:00pm 15.1 9.6 9.0 67 3.1 N 28 37 15 20 - - 0.0
27/03:30pm 16.2 12.4 9.2 63 3.6 N 19 32 10 17 - - 0.0
27/03:00pm 16.1 12.2 9.3 64 3.5 N 20 30 11 16 - - 0.0
27/02:30pm 16.1 11.0 9.3 64 3.5 N 26 35 14 19 - - 0.0
27/02:00pm 16.6 10.8 9.3 62 3.8 N 30 39 16 21 - - 0.0
27/01:30pm 16.3 10.8 9.0 62 3.8 N 28 39 15 21 - - 0.0
27/01:00pm 14.5 9.4 9.3 71 2.7 N 26 33 14 18 - - 0.0
27/12:30pm 14.1 8.9 8.7 70 2.7 N 26 33 14 18 - - 0.0
27/12:00pm 14.0 8.4 8.6 70 2.7 N 28 37 15 20 - - 0.0
27/11:30am 14.7 9.2 9.1 69 2.9 N 28 43 15 23 - - 0.0
27/11:00am 13.2 8.3 8.5 73 2.4 N 24 35 13 19 - - 0.0
27/10:30am 12.9 8.7 8.4 74 2.2 N 20 30 11 16 - - 0.0
27/10:00am 11.0 7.7 8.2 83 1.4 NNW 15 20 8 11 - - 0.0
27/09:30am 9.5 7.8 7.4 87 1.0 NNW 6 9 3 5 - - 0.0
27/09:00am 9.5 7.2 7.3 86 1.0 NNW 9 13 5 7 - - 0.2
27/08:30am 7.7 6.1 6.3 91 0.6 NNW 4 7 2 4 - - 0.2
27/08:00am 8.6 6.2 7.1 90 0.7 N 9 13 5 7 - - 0.2
27/07:30am 7.8 4.7 7.1 95 0.3 N 13 15 7 8 - - 0.2
27/07:00am 5.4 1.8 4.8 96 0.3 NNW 13 15 7 8 - - 0.2
27/06:30am 6.1 3.0 5.5 96 0.3 NNW 11 13 6 7 - - 0.2
27/06:00am 4.9 2.4 4.5 97 0.2 WNW 7 11 4 6 - - 0.2
27/05:30am 4.6 1.2 4.2 97 0.2 NW 11 13 6 7 - - 0.2
27/05:00am 4.6 0.9 4.3 98 0.1 NNW 13 15 7 8 - - 0.2
27/04:30am 3.4 1.9 3.1 98 0.1 CALM 0 6 0 3 - - 0.2
27/04:00am 3.5 0.7 3.2 98 0.1 ESE 7 9 4 5 - - 0.2
27/03:30am 3.1 0.2 2.8 98 0.1 N 7 11 4 6 - - 0.2
27/03:00am 3.5 2.0 3.1 97 0.2 CALM 0 0 0 0 - - 0.2
27/02:30am 4.0 1.3 3.6 97 0.2 N 7 9 4 5 - - 0.2
27/02:00am 3.9 1.4 3.5 97 0.2 NNW 6 7 3 4 - - 0.2
27/01:30am 4.3 1.7 4.0 98 0.1 N 7 11 4 6 - - 0.2
27/01:00am 2.9 0.0 2.5 97 0.2 N 7 11 4 6 - - 0.2
27/12:30am 3.2 1.7 2.8 97 0.2 CALM 0 0 0 0 - - 0.2
27/12:00am 3.3 1.4 2.7 96 0.2 N 2 6 1 3 - - 0.2
 
Date/Time
EST
Tmp

°C
App
Tmp
°C
Dew
Point
°C
Rel
Hum
%
Delta-T

°C
Wind Press
QNH
hPa
Press
MSL
hPa
Rain
since
9 am
mm
Dir
 
Spd
km/h
Gust
km/h
Spd
kts
Gust
kts
26/11:30pm 3.7 0.9 3.3 97 0.2 N 7 11 4 6 - - 0.2
26/11:00pm 3.7 2.2 3.1 96 0.2 CALM 0 0 0 0 - - 0.2

Latest Capital City Observations: Canberra | Sydney | Melbourne | Brisbane | Adelaide | Perth | Hobart | Darwin

Other Formats:

Comma delimited format used in spreadsheet applications
http://www.bom.gov.au/fwo/IDT60901/IDT60901.95972.axf

JavaScript Object Notation format (JSON) in row-major order
http://www.bom.gov.au/fwo/IDT60901/IDT60901.95972.json